sensor_id;sensor_type;location;lat;lon;timestamp;temperature;humidity
758;DHT22;363;48.764;9.172;2022-07-10T00:02:09;18.80;99.90
758;DHT22;363;48.764;9.172;2022-07-10T00:04:34;18.90;99.90
758;DHT22;363;48.764;9.172;2022-07-10T00:07:00;18.80;99.90
758;DHT22;363;48.764;9.172;2022-07-10T00:09:27;18.80;99.90
758;DHT22;363;48.764;9.172;2022-07-10T00:11:53;18.90;99.90
758;DHT22;363;48.764;9.172;2022-07-10T00:14:19;18.90;99.90
758;DHT22;363;48.764;9.172;2022-07-10T00:16:45;18.90;99.90
758;DHT22;363;48.764;9.172;2022-07-10T00:19:11;18.60;99.90
758;DHT22;363;48.764;9.172;2022-07-10T00:21:36;18.60;99.90
758;DHT22;363;48.764;9.172;2022-07-10T00:24:02;18.80;99.90
758;DHT22;363;48.764;9.172;2022-07-10T00:26:28;18.50;99.90
758;DHT22;363;48.764;9.172;2022-07-10T00:28:53;18.80;99.90
758;DHT22;363;48.764;9.172;2022-07-10T00:31:20;18.80;99.90
758;DHT22;363;48.764;9.172;2022-07-10T00:33:45;18.80;99.90
758;DHT22;363;48.764;9.172;2022-07-10T00:36:11;18.80;99.90
758;DHT22;363;48.764;9.172;2022-07-10T00:38:37;18.40;99.90
758;DHT22;363;48.764;9.172;2022-07-10T00:41:02;18.60;99.90
758;DHT22;363;48.764;9.172;2022-07-10T00:43:28;18.30;99.90
758;DHT22;363;48.764;9.172;2022-07-10T00:45:53;18.60;99.90
758;DHT22;363;48.764;9.172;2022-07-10T00:48:19;18.60;99.90
758;DHT22;363;48.764;9.172;2022-07-10T00:50:45;18.50;99.90
758;DHT22;363;48.764;9.172;2022-07-10T00:53:12;18.50;99.90
758;DHT22;363;48.764;9.172;2022-07-10T00:55:39;18.70;99.90
758;DHT22;363;48.764;9.172;2022-07-10T00:58:07;18.70;99.90
758;DHT22;363;48.764;9.172;2022-07-10T01:00:34;18.60;99.90
758;DHT22;363;48.764;9.172;2022-07-10T01:03:00;18.60;99.90
758;DHT22;363;48.764;9.172;2022-07-10T01:05:26;18.10;99.90
758;DHT22;363;48.764;9.172;2022-07-10T01:07:51;18.50;99.90
758;DHT22;363;48.764;9.172;2022-07-10T01:10:17;18.60;99.90
758;DHT22;363;48.764;9.172;2022-07-10T01:12:42;18.00;99.90
758;DHT22;363;48.764;9.172;2022-07-10T01:15:09;18.40;99.90
758;DHT22;363;48.764;9.172;2022-07-10T01:17:35;18.10;99.90
758;DHT22;363;48.764;9.172;2022-07-10T01:20:05;18.60;99.90
758;DHT22;363;48.764;9.172;2022-07-10T01:22:31;17.80;99.90
758;DHT22;363;48.764;9.172;2022-07-10T01:24:56;18.30;99.90
758;DHT22;363;48.764;9.172;2022-07-10T01:27:22;18.10;99.90
758;DHT22;363;48.764;9.172;2022-07-10T01:29:48;18.20;99.90
758;DHT22;363;48.764;9.172;2022-07-10T01:32:14;18.10;99.90
758;DHT22;363;48.764;9.172;2022-07-10T01:34:40;18.00;99.90
758;DHT22;363;48.764;9.172;2022-07-10T01:37:05;18.10;99.90
758;DHT22;363;48.764;9.172;2022-07-10T01:39:31;18.20;99.90
758;DHT22;363;48.764;9.172;2022-07-10T01:41:56;17.70;99.90
758;DHT22;363;48.764;9.172;2022-07-10T01:44:22;17.90;99.90
758;DHT22;363;48.764;9.172;2022-07-10T01:46:47;18.00;99.90
758;DHT22;363;48.764;9.172;2022-07-10T01:49:14;18.00;99.90
758;DHT22;363;48.764;9.172;2022-07-10T01:51:40;17.30;99.90
758;DHT22;363;48.764;9.172;2022-07-10T01:54:06;17.80;99.90
758;DHT22;363;48.764;9.172;2022-07-10T01:56:31;17.30;99.90
758;DHT22;363;48.764;9.172;2022-07-10T01:58:57;17.90;99.90
758;DHT22;363;48.764;9.172;2022-07-10T02:01:25;18.10;99.90
758;DHT22;363;48.764;9.172;2022-07-10T02:03:50;17.60;99.90
758;DHT22;363;48.764;9.172;2022-07-10T02:06:34;17.60;99.90
758;DHT22;363;48.764;9.172;2022-07-10T02:09:00;18.00;99.90
758;DHT22;363;48.764;9.172;2022-07-10T02:11:25;17.60;99.90
758;DHT22;363;48.764;9.172;2022-07-10T02:13:51;18.00;99.90
758;DHT22;363;48.764;9.172;2022-07-10T02:16:16;17.70;99.90
758;DHT22;363;48.764;9.172;2022-07-10T02:18:42;17.90;99.90
758;DHT22;363;48.764;9.172;2022-07-10T02:21:08;17.60;99.90
758;DHT22;363;48.764;9.172;2022-07-10T02:23:34;17.80;99.90
758;DHT22;363;48.764;9.172;2022-07-10T02:25:59;17.60;99.90
758;DHT22;363;48.764;9.172;2022-07-10T02:28:25;17.90;99.90
758;DHT22;363;48.764;9.172;2022-07-10T02:30:50;17.70;99.90
758;DHT22;363;48.764;9.172;2022-07-10T02:33:16;17.50;99.90
758;DHT22;363;48.764;9.172;2022-07-10T02:35:42;19.20;99.90
758;DHT22;363;48.764;9.172;2022-07-10T02:38:07;17.90;99.90
758;DHT22;363;48.764;9.172;2022-07-10T02:40:33;17.90;99.90
758;DHT22;363;48.764;9.172;2022-07-10T02:42:58;18.10;99.90
758;DHT22;363;48.764;9.172;2022-07-10T02:45:23;17.90;99.90
758;DHT22;363;48.764;9.172;2022-07-10T02:47:49;17.60;99.90
758;DHT22;363;48.764;9.172;2022-07-10T02:50:15;17.70;99.90
758;DHT22;363;48.764;9.172;2022-07-10T02:52:40;17.90;99.90
758;DHT22;363;48.764;9.172;2022-07-10T02:55:06;18.00;99.90
758;DHT22;363;48.764;9.172;2022-07-10T02:57:32;17.70;99.90
758;DHT22;363;48.764;9.172;2022-07-10T02:59:57;17.90;99.90
758;DHT22;363;48.764;9.172;2022-07-10T03:02:23;17.60;99.90
758;DHT22;363;48.764;9.172;2022-07-10T03:04:48;18.00;99.90
758;DHT22;363;48.764;9.172;2022-07-10T03:07:14;17.90;99.90
758;DHT22;363;48.764;9.172;2022-07-10T03:09:39;17.60;99.90
758;DHT22;363;48.764;9.172;2022-07-10T03:12:05;17.90;99.90
758;DHT22;363;48.764;9.172;2022-07-10T03:14:31;17.60;99.90
758;DHT22;363;48.764;9.172;2022-07-10T03:16:57;18.10;99.90
758;DHT22;363;48.764;9.172;2022-07-10T03:19:22;18.20;99.90
758;DHT22;363;48.764;9.172;2022-07-10T03:21:48;17.50;99.90
758;DHT22;363;48.764;9.172;2022-07-10T03:24:13;17.90;99.90
758;DHT22;363;48.764;9.172;2022-07-10T03:26:39;17.60;99.90
758;DHT22;363;48.764;9.172;2022-07-10T03:29:04;17.90;99.90
758;DHT22;363;48.764;9.172;2022-07-10T03:31:30;18.10;99.90
758;DHT22;363;48.764;9.172;2022-07-10T03:33:55;17.60;99.90
758;DHT22;363;48.764;9.172;2022-07-10T03:36:21;18.10;99.90
758;DHT22;363;48.764;9.172;2022-07-10T03:38:46;17.80;99.90
758;DHT22;363;48.764;9.172;2022-07-10T03:41:13;18.10;99.90
758;DHT22;363;48.764;9.172;2022-07-10T03:43:39;18.30;99.90
758;DHT22;363;48.764;9.172;2022-07-10T03:46:04;18.10;99.90
758;DHT22;363;48.764;9.172;2022-07-10T03:48:30;17.60;99.90
758;DHT22;363;48.764;9.172;2022-07-10T03:50:55;18.30;99.90
758;DHT22;363;48.764;9.172;2022-07-10T03:53:21;18.20;99.90
758;DHT22;363;48.764;9.172;2022-07-10T03:55:46;17.60;99.90
758;DHT22;363;48.764;9.172;2022-07-10T03:58:12;17.80;99.90
758;DHT22;363;48.764;9.172;2022-07-10T04:00:37;17.60;99.90
758;DHT22;363;48.764;9.172;2022-07-10T04:03:07;17.60;99.90
758;DHT22;363;48.764;9.172;2022-07-10T04:05:33;18.00;99.90
758;DHT22;363;48.764;9.172;2022-07-10T04:08:00;17.90;99.90
758;DHT22;363;48.764;9.172;2022-07-10T04:10:27;18.10;99.90
758;DHT22;363;48.764;9.172;2022-07-10T04:12:54;18.20;99.90
758;DHT22;363;48.764;9.172;2022-07-10T04:15:19;17.80;99.90
758;DHT22;363;48.764;9.172;2022-07-10T04:17:45;17.50;99.90
758;DHT22;363;48.764;9.172;2022-07-10T04:20:11;17.80;99.90
758;DHT22;363;48.764;9.172;2022-07-10T04:22:37;20.40;99.90
758;DHT22;363;48.764;9.172;2022-07-10T04:25:03;17.40;99.90
758;DHT22;363;48.764;9.172;2022-07-10T04:27:29;17.40;99.90
758;DHT22;363;48.764;9.172;2022-07-10T04:29:55;17.10;99.90
758;DHT22;363;48.764;9.172;2022-07-10T04:32:21;17.20;99.90
758;DHT22;363;48.764;9.172;2022-07-10T04:34:46;17.90;99.90
758;DHT22;363;48.764;9.172;2022-07-10T04:37:12;17.50;99.90
758;DHT22;363;48.764;9.172;2022-07-10T04:39:38;17.80;99.90
758;DHT22;363;48.764;9.172;2022-07-10T04:42:05;17.80;99.90
758;DHT22;363;48.764;9.172;2022-07-10T04:44:31;17.50;99.90
758;DHT22;363;48.764;9.172;2022-07-10T04:46:57;17.90;99.90
758;DHT22;363;48.764;9.172;2022-07-10T04:49:23;17.80;99.90
758;DHT22;363;48.764;9.172;2022-07-10T04:51:49;17.90;99.90
758;DHT22;363;48.764;9.172;2022-07-10T04:54:14;17.70;99.90
758;DHT22;363;48.764;9.172;2022-07-10T04:56:40;17.60;99.90
758;DHT22;363;48.764;9.172;2022-07-10T04:59:05;17.90;99.90
758;DHT22;363;48.764;9.172;2022-07-10T05:01:31;17.80;99.90
758;DHT22;363;48.764;9.172;2022-07-10T05:03:57;17.60;99.90
758;DHT22;363;48.764;9.172;2022-07-10T05:06:23;17.40;99.90
758;DHT22;363;48.764;9.172;2022-07-10T05:08:48;17.60;99.90
758;DHT22;363;48.764;9.172;2022-07-10T05:11:14;17.90;99.90
758;DHT22;363;48.764;9.172;2022-07-10T05:13:40;18.10;99.90
758;DHT22;363;48.764;9.172;2022-07-10T05:16:05;18.10;99.90
758;DHT22;363;48.764;9.172;2022-07-10T05:18:31;17.70;99.90
758;DHT22;363;48.764;9.172;2022-07-10T05:20:57;17.70;99.90
758;DHT22;363;48.764;9.172;2022-07-10T05:23:22;18.10;99.90
758;DHT22;363;48.764;9.172;2022-07-10T05:25:48;18.00;99.90
758;DHT22;363;48.764;9.172;2022-07-10T05:28:13;17.90;99.90
758;DHT22;363;48.764;9.172;2022-07-10T05:30:40;18.20;99.90
758;DHT22;363;48.764;9.172;2022-07-10T05:33:06;18.20;99.90
758;DHT22;363;48.764;9.172;2022-07-10T05:35:31;18.00;99.90
758;DHT22;363;48.764;9.172;2022-07-10T05:37:57;18.30;99.90
758;DHT22;363;48.764;9.172;2022-07-10T05:40:23;18.40;99.90
758;DHT22;363;48.764;9.172;2022-07-10T05:42:48;17.90;99.90
758;DHT22;363;48.764;9.172;2022-07-10T05:45:14;18.40;99.90
758;DHT22;363;48.764;9.172;2022-07-10T05:47:40;19.00;99.90
758;DHT22;363;48.764;9.172;2022-07-10T05:50:05;18.90;99.90
758;DHT22;363;48.764;9.172;2022-07-10T05:52:31;18.40;99.90
758;DHT22;363;48.764;9.172;2022-07-10T05:54:57;18.90;99.90
758;DHT22;363;48.764;9.172;2022-07-10T05:57:23;19.00;99.90
758;DHT22;363;48.764;9.172;2022-07-10T05:59:49;19.10;99.90
758;DHT22;363;48.764;9.172;2022-07-10T06:02:15;18.90;99.90
758;DHT22;363;48.764;9.172;2022-07-10T06:04:41;18.80;99.90
758;DHT22;363;48.764;9.172;2022-07-10T06:07:07;18.50;99.90
758;DHT22;363;48.764;9.172;2022-07-10T06:09:32;18.70;99.90
758;DHT22;363;48.764;9.172;2022-07-10T06:11:58;18.70;99.90
758;DHT22;363;48.764;9.172;2022-07-10T06:14:24;18.80;99.90
758;DHT22;363;48.764;9.172;2022-07-10T06:16:49;19.00;99.90
758;DHT22;363;48.764;9.172;2022-07-10T06:19:15;18.70;99.90
758;DHT22;363;48.764;9.172;2022-07-10T06:21:42;18.60;99.90
758;DHT22;363;48.764;9.172;2022-07-10T06:24:08;18.80;99.90
758;DHT22;363;48.764;9.172;2022-07-10T06:26:34;19.00;99.90
758;DHT22;363;48.764;9.172;2022-07-10T06:28:59;18.30;99.90
758;DHT22;363;48.764;9.172;2022-07-10T06:31:25;19.50;99.90
758;DHT22;363;48.764;9.172;2022-07-10T06:33:50;19.10;99.90
758;DHT22;363;48.764;9.172;2022-07-10T06:36:16;19.60;99.90
758;DHT22;363;48.764;9.172;2022-07-10T06:38:41;19.10;99.70
758;DHT22;363;48.764;9.172;2022-07-10T06:41:07;19.40;99.70
758;DHT22;363;48.764;9.172;2022-07-10T06:43:32;19.80;99.40
758;DHT22;363;48.764;9.172;2022-07-10T06:45:58;18.70;99.20
758;DHT22;363;48.764;9.172;2022-07-10T06:48:24;18.50;99.90
758;DHT22;363;48.764;9.172;2022-07-10T06:50:51;19.10;99.90
758;DHT22;363;48.764;9.172;2022-07-10T06:53:17;19.00;99.90
758;DHT22;363;48.764;9.172;2022-07-10T06:55:43;19.10;99.80
758;DHT22;363;48.764;9.172;2022-07-10T06:58:08;19.20;99.90
758;DHT22;363;48.764;9.172;2022-07-10T07:00:34;19.30;99.70
758;DHT22;363;48.764;9.172;2022-07-10T07:02:59;19.20;99.60
758;DHT22;363;48.764;9.172;2022-07-10T07:05:25;19.40;99.80
758;DHT22;363;48.764;9.172;2022-07-10T07:07:50;19.40;99.10
758;DHT22;363;48.764;9.172;2022-07-10T07:10:16;19.40;98.00
758;DHT22;363;48.764;9.172;2022-07-10T07:12:41;19.80;98.50
758;DHT22;363;48.764;9.172;2022-07-10T07:15:07;18.90;98.70
758;DHT22;363;48.764;9.172;2022-07-10T07:17:38;18.80;98.10
758;DHT22;363;48.764;9.172;2022-07-10T07:20:22;20.00;97.10
758;DHT22;363;48.764;9.172;2022-07-10T07:23:06;19.60;95.30
758;DHT22;363;48.764;9.172;2022-07-10T07:25:35;19.50;95.70
758;DHT22;363;48.764;9.172;2022-07-10T07:28:00;19.30;96.20
758;DHT22;363;48.764;9.172;2022-07-10T07:30:26;19.40;96.40
758;DHT22;363;48.764;9.172;2022-07-10T07:32:51;19.80;96.40
758;DHT22;363;48.764;9.172;2022-07-10T07:35:17;19.70;96.20
758;DHT22;363;48.764;9.172;2022-07-10T07:37:50;19.80;95.50
758;DHT22;363;48.764;9.172;2022-07-10T07:40:18;19.30;95.20
758;DHT22;363;48.764;9.172;2022-07-10T07:42:52;19.80;95.20
758;DHT22;363;48.764;9.172;2022-07-10T07:45:19;19.70;95.00
758;DHT22;363;48.764;9.172;2022-07-10T07:47:55;19.60;95.60
758;DHT22;363;48.764;9.172;2022-07-10T07:50:23;19.90;96.10
758;DHT22;363;48.764;9.172;2022-07-10T07:52:49;20.10;95.70
758;DHT22;363;48.764;9.172;2022-07-10T07:55:16;20.00;93.90
758;DHT22;363;48.764;9.172;2022-07-10T07:57:43;20.40;94.10
758;DHT22;363;48.764;9.172;2022-07-10T08:00:09;20.20;93.60
758;DHT22;363;48.764;9.172;2022-07-10T08:02:36;20.20;93.30
758;DHT22;363;48.764;9.172;2022-07-10T08:05:02;20.20;93.10
758;DHT22;363;48.764;9.172;2022-07-10T08:07:35;20.80;93.20
758;DHT22;363;48.764;9.172;2022-07-10T08:10:01;20.80;92.90
758;DHT22;363;48.764;9.172;2022-07-10T08:12:27;21.30;91.80
758;DHT22;363;48.764;9.172;2022-07-10T08:14:52;21.10;91.70
758;DHT22;363;48.764;9.172;2022-07-10T08:17:18;21.40;91.00
758;DHT22;363;48.764;9.172;2022-07-10T08:19:43;22.10;90.30
758;DHT22;363;48.764;9.172;2022-07-10T08:22:09;24.30;84.10
758;DHT22;363;48.764;9.172;2022-07-10T08:24:34;26.30;76.20
758;DHT22;363;48.764;9.172;2022-07-10T08:27:00;27.40;70.20
758;DHT22;363;48.764;9.172;2022-07-10T08:29:25;27.60;65.50
758;DHT22;363;48.764;9.172;2022-07-10T08:31:51;26.60;64.30
758;DHT22;363;48.764;9.172;2022-07-10T08:34:16;27.10;67.20
758;DHT22;363;48.764;9.172;2022-07-10T08:36:42;27.10;62.60
758;DHT22;363;48.764;9.172;2022-07-10T08:39:07;25.70;64.10
758;DHT22;363;48.764;9.172;2022-07-10T08:41:35;26.60;62.40
758;DHT22;363;48.764;9.172;2022-07-10T08:44:01;27.60;61.50
758;DHT22;363;48.764;9.172;2022-07-10T08:46:27;29.40;57.30
758;DHT22;363;48.764;9.172;2022-07-10T08:48:54;30.20;54.80
758;DHT22;363;48.764;9.172;2022-07-10T08:54:28;28.50;55.40
758;DHT22;363;48.764;9.172;2022-07-10T08:56:57;27.20;58.00
758;DHT22;363;48.764;9.172;2022-07-10T08:59:23;28.30;57.50
758;DHT22;363;48.764;9.172;2022-07-10T09:01:48;28.50;55.30
758;DHT22;363;48.764;9.172;2022-07-10T09:04:19;26.70;56.20
758;DHT22;363;48.764;9.172;2022-07-10T09:06:45;26.50;58.80
758;DHT22;363;48.764;9.172;2022-07-10T09:09:11;27.00;57.50
758;DHT22;363;48.764;9.172;2022-07-10T09:11:39;26.80;57.00
758;DHT22;363;48.764;9.172;2022-07-10T09:14:07;26.20;58.10
758;DHT22;363;48.764;9.172;2022-07-10T09:16:36;26.90;57.70
758;DHT22;363;48.764;9.172;2022-07-10T09:21:49;26.50;57.60
758;DHT22;363;48.764;9.172;2022-07-10T09:24:16;27.30;57.00
758;DHT22;363;48.764;9.172;2022-07-10T09:29:22;28.00;54.00
758;DHT22;363;48.764;9.172;2022-07-10T09:31:49;27.50;53.40
758;DHT22;363;48.764;9.172;2022-07-10T09:34:16;27.20;55.20
758;DHT22;363;48.764;9.172;2022-07-10T09:36:42;26.20;56.20
758;DHT22;363;48.764;9.172;2022-07-10T09:39:08;26.20;56.30
758;DHT22;363;48.764;9.172;2022-07-10T09:41:34;27.20;54.30
758;DHT22;363;48.764;9.172;2022-07-10T09:44:04;26.60;54.90
758;DHT22;363;48.764;9.172;2022-07-10T09:46:36;25.10;56.80
758;DHT22;363;48.764;9.172;2022-07-10T09:49:06;24.10;58.90
758;DHT22;363;48.764;9.172;2022-07-10T09:51:33;23.60;60.80
758;DHT22;363;48.764;9.172;2022-07-10T09:54:01;23.70;61.90
758;DHT22;363;48.764;9.172;2022-07-10T09:56:39;25.00;60.90
758;DHT22;363;48.764;9.172;2022-07-10T09:59:12;24.90;58.90
758;DHT22;363;48.764;9.172;2022-07-10T10:01:46;25.80;57.10
758;DHT22;363;48.764;9.172;2022-07-10T10:04:13;25.40;57.00
758;DHT22;363;48.764;9.172;2022-07-10T10:06:40;24.70;57.90
758;DHT22;363;48.764;9.172;2022-07-10T10:11:57;23.70;60.40
758;DHT22;363;48.764;9.172;2022-07-10T10:14:27;24.40;61.20
758;DHT22;363;48.764;9.172;2022-07-10T10:16:55;26.50;57.10
758;DHT22;363;48.764;9.172;2022-07-10T10:19:23;27.40;53.00
758;DHT22;363;48.764;9.172;2022-07-10T10:22:08;27.30;53.90
758;DHT22;363;48.764;9.172;2022-07-10T10:24:36;26.80;55.00
758;DHT22;363;48.764;9.172;2022-07-10T10:27:05;28.40;53.50
758;DHT22;363;48.764;9.172;2022-07-10T10:29:32;29.10;50.60
758;DHT22;363;48.764;9.172;2022-07-10T10:32:01;30.40;48.80
758;DHT22;363;48.764;9.172;2022-07-10T10:34:45;30.00;48.20
758;DHT22;363;48.764;9.172;2022-07-10T10:39:53;27.50;50.20
758;DHT22;363;48.764;9.172;2022-07-10T10:42:40;25.40;53.90
758;DHT22;363;48.764;9.172;2022-07-10T10:45:31;26.00;54.10
758;DHT22;363;48.764;9.172;2022-07-10T10:48:04;25.80;53.20
758;DHT22;363;48.764;9.172;2022-07-10T10:53:26;27.00;52.70
758;DHT22;363;48.764;9.172;2022-07-10T10:58:50;27.20;52.00
758;DHT22;363;48.764;9.172;2022-07-10T11:01:25;27.10;52.70
758;DHT22;363;48.764;9.172;2022-07-10T11:14:27;26.50;52.20
758;DHT22;363;48.764;9.172;2022-07-10T11:16:57;25.60;53.90
758;DHT22;363;48.764;9.172;2022-07-10T11:19:28;26.20;53.80
758;DHT22;363;48.764;9.172;2022-07-10T11:22:28;27.60;51.10
758;DHT22;363;48.764;9.172;2022-07-10T11:25:16;28.60;49.80
758;DHT22;363;48.764;9.172;2022-07-10T11:27:52;29.30;48.00
758;DHT22;363;48.764;9.172;2022-07-10T11:30:19;28.20;47.70
758;DHT22;363;48.764;9.172;2022-07-10T11:32:45;27.60;48.20
758;DHT22;363;48.764;9.172;2022-07-10T11:35:13;27.20;47.90
758;DHT22;363;48.764;9.172;2022-07-10T11:37:52;26.70;49.80
758;DHT22;363;48.764;9.172;2022-07-10T11:40:18;26.50;50.00
758;DHT22;363;48.764;9.172;2022-07-10T11:43:03;26.70;48.80
758;DHT22;363;48.764;9.172;2022-07-10T11:45:33;27.40;47.60
758;DHT22;363;48.764;9.172;2022-07-10T11:48:02;27.70;46.50
758;DHT22;363;48.764;9.172;2022-07-10T11:50:28;27.90;46.20
758;DHT22;363;48.764;9.172;2022-07-10T11:52:59;27.50;46.20
758;DHT22;363;48.764;9.172;2022-07-10T11:55:26;26.60;48.60
758;DHT22;363;48.764;9.172;2022-07-10T11:57:52;26.10;50.30
758;DHT22;363;48.764;9.172;2022-07-10T12:00:28;25.60;51.10
758;DHT22;363;48.764;9.172;2022-07-10T12:02:56;24.90;52.20
758;DHT22;363;48.764;9.172;2022-07-10T12:05:30;24.60;52.70
758;DHT22;363;48.764;9.172;2022-07-10T12:07:56;24.50;52.20
758;DHT22;363;48.764;9.172;2022-07-10T12:10:26;24.00;52.30
758;DHT22;363;48.764;9.172;2022-07-10T12:12:52;23.70;53.20
758;DHT22;363;48.764;9.172;2022-07-10T12:15:34;23.40;54.60
758;DHT22;363;48.764;9.172;2022-07-10T12:18:00;23.40;55.60
758;DHT22;363;48.764;9.172;2022-07-10T12:20:26;23.30;55.00
758;DHT22;363;48.764;9.172;2022-07-10T12:22:52;23.50;54.90
758;DHT22;363;48.764;9.172;2022-07-10T12:25:20;23.50;53.90
758;DHT22;363;48.764;9.172;2022-07-10T12:27:45;23.10;54.30
758;DHT22;363;48.764;9.172;2022-07-10T12:30:11;23.10;54.90
758;DHT22;363;48.764;9.172;2022-07-10T12:32:37;22.60;55.50
758;DHT22;363;48.764;9.172;2022-07-10T12:35:03;23.00;56.90
758;DHT22;363;48.764;9.172;2022-07-10T12:37:28;22.70;55.80
758;DHT22;363;48.764;9.172;2022-07-10T12:39:54;22.60;54.20
758;DHT22;363;48.764;9.172;2022-07-10T12:42:30;22.70;53.00
758;DHT22;363;48.764;9.172;2022-07-10T12:45:12;22.60;52.70
758;DHT22;363;48.764;9.172;2022-07-10T12:47:45;22.60;53.20
758;DHT22;363;48.764;9.172;2022-07-10T12:50:12;22.70;54.60
758;DHT22;363;48.764;9.172;2022-07-10T12:52:38;22.90;55.00
758;DHT22;363;48.764;9.172;2022-07-10T12:55:21;22.80;55.30
758;DHT22;363;48.764;9.172;2022-07-10T12:57:54;22.80;55.50
758;DHT22;363;48.764;9.172;2022-07-10T13:00:31;22.60;55.10
758;DHT22;363;48.764;9.172;2022-07-10T13:03:07;22.40;54.60
758;DHT22;363;48.764;9.172;2022-07-10T13:05:35;22.40;54.80
758;DHT22;363;48.764;9.172;2022-07-10T13:08:18;21.90;54.60
758;DHT22;363;48.764;9.172;2022-07-10T13:10:55;22.10;55.50
758;DHT22;363;48.764;9.172;2022-07-10T13:13:21;22.10;55.80
758;DHT22;363;48.764;9.172;2022-07-10T13:15:48;22.10;56.00
758;DHT22;363;48.764;9.172;2022-07-10T13:18:24;22.20;55.70
758;DHT22;363;48.764;9.172;2022-07-10T13:20:51;22.20;55.50
758;DHT22;363;48.764;9.172;2022-07-10T13:23:17;22.30;55.40
758;DHT22;363;48.764;9.172;2022-07-10T13:25:48;22.50;55.60
758;DHT22;363;48.764;9.172;2022-07-10T13:28:14;22.50;55.50
758;DHT22;363;48.764;9.172;2022-07-10T13:30:42;22.60;55.30
758;DHT22;363;48.764;9.172;2022-07-10T13:33:08;22.60;54.50
758;DHT22;363;48.764;9.172;2022-07-10T13:35:34;22.70;53.50
758;DHT22;363;48.764;9.172;2022-07-10T13:38:01;22.60;54.50
758;DHT22;363;48.764;9.172;2022-07-10T13:40:31;22.50;54.70
758;DHT22;363;48.764;9.172;2022-07-10T13:42:57;22.50;55.40
758;DHT22;363;48.764;9.172;2022-07-10T13:45:24;22.60;55.20
758;DHT22;363;48.764;9.172;2022-07-10T13:48:04;22.60;54.90
758;DHT22;363;48.764;9.172;2022-07-10T13:50:30;22.60;55.10
758;DHT22;363;48.764;9.172;2022-07-10T13:52:56;22.50;55.10
758;DHT22;363;48.764;9.172;2022-07-10T13:55:22;22.40;54.90
758;DHT22;363;48.764;9.172;2022-07-10T13:57:47;22.50;55.70
758;DHT22;363;48.764;9.172;2022-07-10T14:00:13;22.50;56.20
758;DHT22;363;48.764;9.172;2022-07-10T14:02:39;22.50;56.30
758;DHT22;363;48.764;9.172;2022-07-10T14:05:05;22.30;56.40
758;DHT22;363;48.764;9.172;2022-07-10T14:07:31;22.40;56.80
758;DHT22;363;48.764;9.172;2022-07-10T14:09:56;22.40;56.10
758;DHT22;363;48.764;9.172;2022-07-10T14:12:23;22.10;56.80
758;DHT22;363;48.764;9.172;2022-07-10T14:14:49;22.20;57.10
758;DHT22;363;48.764;9.172;2022-07-10T14:17:15;22.30;57.10
758;DHT22;363;48.764;9.172;2022-07-10T14:19:40;22.50;56.80
758;DHT22;363;48.764;9.172;2022-07-10T14:22:07;22.60;56.90
758;DHT22;363;48.764;9.172;2022-07-10T14:24:32;22.80;57.30
758;DHT22;363;48.764;9.172;2022-07-10T14:26:58;22.80;55.80
758;DHT22;363;48.764;9.172;2022-07-10T14:29:23;22.40;56.40
758;DHT22;363;48.764;9.172;2022-07-10T14:31:49;22.50;56.00
758;DHT22;363;48.764;9.172;2022-07-10T14:34:16;22.50;55.90
758;DHT22;363;48.764;9.172;2022-07-10T14:36:41;22.50;55.80
758;DHT22;363;48.764;9.172;2022-07-10T14:39:07;22.70;55.60
758;DHT22;363;48.764;9.172;2022-07-10T14:41:32;22.80;55.60
758;DHT22;363;48.764;9.172;2022-07-10T14:43:58;22.80;55.20
758;DHT22;363;48.764;9.172;2022-07-10T14:46:23;22.80;55.10
758;DHT22;363;48.764;9.172;2022-07-10T14:48:50;22.90;55.60
758;DHT22;363;48.764;9.172;2022-07-10T14:51:15;22.70;55.30
758;DHT22;363;48.764;9.172;2022-07-10T14:53:41;22.60;55.60
758;DHT22;363;48.764;9.172;2022-07-10T14:56:08;22.50;55.80
758;DHT22;363;48.764;9.172;2022-07-10T14:58:34;22.30;55.70
758;DHT22;363;48.764;9.172;2022-07-10T15:01:00;22.00;56.30
758;DHT22;363;48.764;9.172;2022-07-10T15:03:26;21.80;57.00
758;DHT22;363;48.764;9.172;2022-07-10T15:05:52;21.70;57.10
758;DHT22;363;48.764;9.172;2022-07-10T15:08:22;21.60;57.20
758;DHT22;363;48.764;9.172;2022-07-10T15:10:48;21.60;56.80
758;DHT22;363;48.764;9.172;2022-07-10T15:13:14;21.60;56.60
758;DHT22;363;48.764;9.172;2022-07-10T15:15:41;21.70;56.50
758;DHT22;363;48.764;9.172;2022-07-10T15:18:07;21.80;56.40
758;DHT22;363;48.764;9.172;2022-07-10T15:20:32;21.70;56.40
758;DHT22;363;48.764;9.172;2022-07-10T15:22:58;21.70;56.70
758;DHT22;363;48.764;9.172;2022-07-10T15:25:24;21.60;57.20
758;DHT22;363;48.764;9.172;2022-07-10T15:27:52;21.70;57.40
758;DHT22;363;48.764;9.172;2022-07-10T15:30:18;21.70;56.80
758;DHT22;363;48.764;9.172;2022-07-10T15:32:44;22.10;56.80
758;DHT22;363;48.764;9.172;2022-07-10T15:35:11;21.80;56.60
758;DHT22;363;48.764;9.172;2022-07-10T15:37:37;21.90;56.10
758;DHT22;363;48.764;9.172;2022-07-10T15:40:03;21.80;56.70
758;DHT22;363;48.764;9.172;2022-07-10T15:42:29;21.80;56.60
758;DHT22;363;48.764;9.172;2022-07-10T15:44:54;21.80;56.10
758;DHT22;363;48.764;9.172;2022-07-10T15:47:20;21.80;55.90
758;DHT22;363;48.764;9.172;2022-07-10T15:49:45;21.60;55.40
758;DHT22;363;48.764;9.172;2022-07-10T15:52:11;21.70;55.90
758;DHT22;363;48.764;9.172;2022-07-10T15:54:37;21.80;55.90
758;DHT22;363;48.764;9.172;2022-07-10T15:57:03;21.90;55.70
758;DHT22;363;48.764;9.172;2022-07-10T15:59:28;21.90;55.70
758;DHT22;363;48.764;9.172;2022-07-10T16:01:55;22.00;55.70
758;DHT22;363;48.764;9.172;2022-07-10T16:04:22;21.80;55.70
758;DHT22;363;48.764;9.172;2022-07-10T16:06:49;21.70;56.20
758;DHT22;363;48.764;9.172;2022-07-10T16:09:15;21.80;56.20
758;DHT22;363;48.764;9.172;2022-07-10T16:11:40;21.90;56.00
758;DHT22;363;48.764;9.172;2022-07-10T16:14:07;21.40;55.40
758;DHT22;363;48.764;9.172;2022-07-10T16:16:33;22.00;56.00
758;DHT22;363;48.764;9.172;2022-07-10T16:18:59;22.00;56.00
758;DHT22;363;48.764;9.172;2022-07-10T16:21:24;22.00;56.10
758;DHT22;363;48.764;9.172;2022-07-10T16:23:50;22.00;56.30
758;DHT22;363;48.764;9.172;2022-07-10T16:26:17;22.00;56.10
758;DHT22;363;48.764;9.172;2022-07-10T16:28:42;21.90;56.20
758;DHT22;363;48.764;9.172;2022-07-10T16:31:08;21.90;56.30
758;DHT22;363;48.764;9.172;2022-07-10T16:33:37;21.90;56.20
758;DHT22;363;48.764;9.172;2022-07-10T16:36:05;22.20;56.50
758;DHT22;363;48.764;9.172;2022-07-10T16:38:31;22.00;56.30
758;DHT22;363;48.764;9.172;2022-07-10T16:40:57;22.00;56.40
758;DHT22;363;48.764;9.172;2022-07-10T16:43:22;22.00;56.50
758;DHT22;363;48.764;9.172;2022-07-10T16:45:50;22.20;56.50
758;DHT22;363;48.764;9.172;2022-07-10T16:48:17;22.20;56.60
758;DHT22;363;48.764;9.172;2022-07-10T16:50:43;22.30;56.10
758;DHT22;363;48.764;9.172;2022-07-10T16:53:08;22.20;56.40
758;DHT22;363;48.764;9.172;2022-07-10T16:55:34;22.30;56.10
758;DHT22;363;48.764;9.172;2022-07-10T16:57:59;22.20;56.00
758;DHT22;363;48.764;9.172;2022-07-10T17:00:25;22.10;56.30
758;DHT22;363;48.764;9.172;2022-07-10T17:02:50;22.10;56.60
758;DHT22;363;48.764;9.172;2022-07-10T17:05:16;22.00;56.80